MET8601 - Guantanamo to McGuire AFB

Boeing 757-200W
773MU - Charter
2 hrs 40 mins
1209 nm
Charter - M | F

Departure

Departing from
Guantanamo (NBW)
Departure gate
Ramp
Scheduled Departure
GMT 0100
Local 2000
METAR MUGM 170156Z 35008KT 9999 FEW040 FEW080 24/19 A3011 RMK SLP198 T02390189
TAF TAF MUGM 1623/1723 11016G22KT 9999 SCT030 BKN070 520008 QNH2998INS BECMG 1700/1701 34007KT 9999 FEW030 SCT110 SCT280 500000 QNH3000INS BECMG 1713/1715 08013KT 9999 FEW030 FEW280 QNH3003INS FM171700 11016G22KT 9999 FEW030 SCT280 520008 QNH3000INS TEMPO 171
  • No charts available

Arrival

Arriving at
McGuire AFB (WRI)
Arrival gate
Ramp
Scheduled Arrival
GMT 0340
Local 2240
METAR KWRI 170218Z AUTO 23004KT 10SM BKN029 OVC085 04/M05 A3032 RMK AO2 CIG 029V085 BKN V SCT
TAF TAF KWRI 170200Z 1702/1808 18006KT 9999 SCT020 BKN030 OVC080 620853 QNH3025INS BECMG 1707/1708 18006KT 8000 -RA SCT015 OVC020 620809 QNH3023INS BECMG 1710/1711 18006KT 8000 -RA BKN015 OVC020 620809 QNH3021INS BECMG 1712/1713 18006KT 9999 NSW BKN009 OVC020

Route Map

Planning Resources

MUGM UHG UNV HODGY KURAY BARTS SCOBY GARDR EDDYS ORF SAWED RADDS KWRI
UHG UNV ENAMO HODGY ZQA KURAY MELON HANKX BARTS ABACO NUCAR SCOBY CARPS PERIE OLDEY GARDR PANAL DIW CLAPY GILMA EDDYS ORF SAWED KALDA SWL12 SWL RADDS SIE
SOUTP EASTP BYGON FORST ZQA BR65V ZFP AR24 OHLAA DIW DIW J174 ORF J209 CYN
BYGON GRATX ILIDO FLUPS OXANA SIE SIE4
DANYL EASTP BYGON
Route:
OFP Layout:
Units:
Detailed Navlog:
ETOPS Planning:
Plan Stepclimbs:
Runway Analysis:
Include NOTAMS:
FIR NOTAMS:
Flight Maps:

Return Flights

MET8600
Boeing 757-200W
2030 GMT

Popularity

Hub Current Bids PiReps this month Total PiReps
KMCI 0 0 3
KLAX 0 0 1
KBOS 0 0 2